createdAt,value
2019-04-20T00:02:08.342Z,38.65
2019-04-20T00:04:34.233Z,39.23
2019-04-20T00:07:03.922Z,39.79
2019-04-20T00:09:36.980Z,39.59
2019-04-20T00:12:15.068Z,39.48
2019-04-20T00:14:38.864Z,39.12
2019-04-20T00:17:07.892Z,39.02
2019-04-20T00:19:44.112Z,39.40
2019-04-20T00:22:17.245Z,38.96
2019-04-20T00:25:11.923Z,39.07
2019-04-20T00:28:15.236Z,39.29
2019-04-20T00:30:48.117Z,39.72
2019-04-20T00:33:08.423Z,39.62
2019-04-20T00:35:29.627Z,39.76
2019-04-20T00:37:59.237Z,40.03
2019-04-20T00:40:28.955Z,40.14
2019-04-20T00:42:59.945Z,40.10
2019-04-20T00:45:33.238Z,40.37
2019-04-20T00:48:08.179Z,40.44
2019-04-20T00:50:44.578Z,40.65
2019-04-20T00:53:13.351Z,40.65
2019-04-20T00:55:36.082Z,40.46
2019-04-20T00:58:18.494Z,40.57
2019-04-20T01:01:01.492Z,40.12
2019-04-20T01:03:24.744Z,40.74
2019-04-20T01:06:19.312Z,40.97
2019-04-20T01:08:34.073Z,40.83
2019-04-20T01:11:04.230Z,40.93
2019-04-20T01:13:42.126Z,41.21
2019-04-20T01:16:14.582Z,41.12
2019-04-20T01:18:36.676Z,41.21
2019-04-20T01:21:13.855Z,40.98
2019-04-20T01:23:46.214Z,41.48
2019-04-20T01:26:15.335Z,41.45
2019-04-20T01:28:57.719Z,41.17
2019-04-20T01:31:21.870Z,41.61
2019-04-20T01:33:55.098Z,41.58
2019-04-20T01:36:36.871Z,41.37
2019-04-20T01:39:00.186Z,41.66
2019-04-20T01:41:18.234Z,41.45
2019-04-20T01:43:48.150Z,41.62
2019-04-20T01:46:23.077Z,41.66
2019-04-20T01:48:50.521Z,41.95
2019-04-20T01:51:26.440Z,42.20
2019-04-20T01:54:11.774Z,41.57
2019-04-20T01:56:43.468Z,41.60
2019-04-20T01:59:34.747Z,42.20
2019-04-20T02:02:22.796Z,41.89
2019-04-20T02:05:06.129Z,41.64
2019-04-20T02:07:35.021Z,42.04
2019-04-20T02:10:04.552Z,42.40
2019-04-20T02:12:35.503Z,42.92
2019-04-20T02:15:04.782Z,42.63
2019-04-20T02:17:40.791Z,43.04
2019-04-20T02:20:32.131Z,43.06
2019-04-20T02:22:57.009Z,43.12
2019-04-20T02:25:09.952Z,42.55
2019-04-20T02:27:48.182Z,42.52
2019-04-20T02:30:48.200Z,43.26
2019-04-20T02:33:29.882Z,43.16
2019-04-20T02:39:13.701Z,42.93
2019-04-20T02:41:29.077Z,43.10
2019-04-20T02:46:31.542Z,43.70
2019-04-20T02:49:12.926Z,43.74
2019-04-20T02:51:42.325Z,43.84
2019-04-20T02:54:19.151Z,43.89
2019-04-20T02:56:48.388Z,43.80
2019-04-20T02:59:43.289Z,44.00
2019-04-20T03:01:36.452Z,44.35
2019-04-20T03:03:52.685Z,44.97
2019-04-20T03:06:32.912Z,45.08
2019-04-20T03:09:17.688Z,45.15
2019-04-20T03:11:55.315Z,44.99
2019-04-20T03:14:09.566Z,45.33
2019-04-20T03:16:43.663Z,45.44
2019-04-20T03:19:14.572Z,45.30
2019-04-20T03:21:54.123Z,45.47
2019-04-20T03:24:26.821Z,45.52
2019-04-20T03:27:00.832Z,45.43
2019-04-20T03:30:03.695Z,45.50
2019-04-20T03:35:22.423Z,46.25
2019-04-20T03:37:52.671Z,46.81
2019-04-20T03:40:19.165Z,46.94
2019-04-20T03:42:34.895Z,47.05
2019-04-20T03:45:09.768Z,47.14
2019-04-20T03:47:49.862Z,47.07
2019-04-20T03:50:32.620Z,47.16
2019-04-20T03:53:13.068Z,47.27
2019-04-20T03:56:10.054Z,47.56
2019-04-20T03:58:47.301Z,47.70
2019-04-20T04:02:03.335Z,48.10
2019-04-20T04:04:19.392Z,48.36
2019-04-20T04:06:37.251Z,48.62
2019-04-20T04:09:13.626Z,48.71
2019-04-20T04:11:46.136Z,48.96
2019-04-20T04:14:00.923Z,48.90
2019-04-20T04:16:39.438Z,48.55
2019-04-20T04:19:12.710Z,48.63
2019-04-20T04:21:49.842Z,48.54
2019-04-20T04:24:17.070Z,48.13
2019-04-20T04:26:51.679Z,48.31
2019-04-20T04:29:31.103Z,48.19
2019-04-20T04:32:10.458Z,48.25
2019-04-20T04:34:32.327Z,48.03
2019-04-20T04:37:04.834Z,48.40
2019-04-20T04:39:36.959Z,48.29
2019-04-20T04:42:13.655Z,48.50
2019-04-20T04:44:33.547Z,48.39
2019-04-20T04:46:54.688Z,48.34
2019-04-20T04:49:26.320Z,48.07
2019-04-20T04:51:58.582Z,48.00
2019-04-20T04:54:28.756Z,47.80
2019-04-20T04:56:52.694Z,47.47
2019-04-20T04:59:23.521Z,47.33
2019-04-20T05:01:56.549Z,46.95
2019-04-20T05:05:05.195Z,46.34
2019-04-20T05:07:38.338Z,45.94
2019-04-20T05:09:59.036Z,45.60
2019-04-20T05:12:33.078Z,45.27
2019-04-20T05:15:07.602Z,44.80
2019-04-20T05:17:50.237Z,44.32
2019-04-20T05:20:22.868Z,43.80
2019-04-20T05:22:58.770Z,42.97
2019-04-20T05:26:10.091Z,42.58
2019-04-20T05:28:32.327Z,41.83
2019-04-20T05:30:55.892Z,41.22
2019-04-20T05:33:34.479Z,41.04
2019-04-20T05:36:14.774Z,40.47
2019-04-20T05:38:50.420Z,40.14
2019-04-20T05:41:20.138Z,39.86
2019-04-20T05:43:57.285Z,39.17
2019-04-20T05:46:31.991Z,39.00
2019-04-20T05:49:05.291Z,39.08
2019-04-20T05:51:39.777Z,38.20
2019-04-20T05:54:07.223Z,37.52
2019-04-20T05:56:40.285Z,37.29
2019-04-20T05:59:04.604Z,37.44
2019-04-20T06:01:49.949Z,36.71
2019-04-20T06:04:10.427Z,35.82
2019-04-20T06:06:44.670Z,35.60
2019-04-20T06:09:20.960Z,34.90
2019-04-20T06:12:01.349Z,34.55
2019-04-20T06:14:10.198Z,33.93
2019-04-20T06:17:15.985Z,35.14
2019-04-20T06:19:46.953Z,35.18
2019-04-20T06:22:31.386Z,33.45
2019-04-20T06:25:19.611Z,33.34
2019-04-20T06:27:40.978Z,32.04
2019-04-20T06:30:08.598Z,31.52
2019-04-20T06:33:21.561Z,30.54
2019-04-20T06:36:09.338Z,30.41
2019-04-20T06:38:36.529Z,30.19
2019-04-20T06:41:00.617Z,29.78
2019-04-20T06:43:19.235Z,29.49
2019-04-20T06:46:01.927Z,29.54
2019-04-20T06:48:29.315Z,29.83
2019-04-20T06:50:53.027Z,28.98
2019-04-20T06:53:43.622Z,29.27
2019-04-20T06:56:17.203Z,28.48
2019-04-20T06:59:04.257Z,27.79
2019-04-20T07:01:17.149Z,27.54
2019-04-20T07:06:34.292Z,27.25
2019-04-20T07:11:25.118Z,26.32
2019-04-20T07:13:45.865Z,26.43
2019-04-20T07:16:34.906Z,27.60
